Time;durP1;ratioP1;P1;durP2;ratioP2;P2;SDS_P1;SDS_P2;PMS_P1;PMS_P2;Temp;Humidity;BMP_temperature;BMP_pressure;BME280_temperature;BME280_humidity;BME280_pressure;Samples;Min_cycle;Max_cycle;Signal;HPM_P1;HPM_P2
2023/08/15 00:02:20;;;;;;;18.63;7.60;;;19.90;22.60;;;;;;5053108;28;20219;-81
2023/08/15 00:11:45;;;;;;;17.70;7.77;;;19.80;24.00;;;;;;5040777;28;20536;-81
2023/08/15 00:17:47;;;;;;;31.77;7.63;;;19.80;22.40;;;;;;5056261;28;20468;-81
2023/08/15 00:26:57;;;;;;;13.27;7.40;;;19.90;26.80;;;;;;5046281;28;20893;-78
2023/08/15 00:29:44;;;;;;;22.30;7.60;;;19.90;27.70;;;;;;5055840;28;20423;-78
2023/08/15 00:32:45;;;;;;;20.07;7.80;;;19.90;28.80;;;;;;5055921;28;20531;-77
2023/08/15 00:39:01;;;;;;;28.23;8.70;;;19.90;28.90;;;;;;5037688;28;20392;-78
2023/08/15 00:41:27;;;;;;;20.77;7.87;;;19.90;29.00;;;;;;5056060;28;20403;-78
2023/08/15 00:50:39;;;;;;;16.87;8.30;;;20.00;27.60;;;;;;5056008;28;20461;-81
2023/08/15 00:53:27;;;;;;;28.63;8.13;;;20.00;27.20;;;;;;5054332;28;20485;-81
2023/08/15 00:56:26;;;;;;;13.33;7.53;;;19.90;27.50;;;;;;5042887;28;20807;-81
2023/08/15 00:58:57;;;;;;;13.63;7.50;;;19.90;29.40;;;;;;5047571;28;20435;-81
2023/08/15 01:01:44;;;;;;;15.97;7.77;;;19.90;28.40;;;;;;5048827;28;20469;-81
2023/08/15 01:04:56;;;;;;;15.03;8.07;;;19.90;25.70;;;;;;5054415;28;20469;-81
2023/08/15 01:07:22;;;;;;;32.30;8.80;;;19.90;27.40;;;;;;5044231;28;20454;-78
2023/08/15 01:10:26;;;;;;;15.60;8.97;;;19.90;27.80;;;;;;5052569;28;20432;-78
2023/08/15 01:16:40;;;;;;;14.00;7.77;;;19.80;33.40;;;;;;5054930;28;20477;-78
2023/08/15 01:22:28;;;;;;;22.30;9.17;;;19.90;37.00;;;;;;5035823;28;20412;-78
2023/08/15 01:25:27;;;;;;;20.23;8.40;;;19.90;35.90;;;;;;5045319;28;20439;-78
2023/08/15 01:27:57;;;;;;;20.53;8.40;;;19.90;36.70;;;;;;5052493;28;20746;-78
2023/08/15 01:31:09;;;;;;;23.53;8.43;;;19.90;35.60;;;;;;5055030;28;20541;-78
2023/08/15 01:34:17;;;;;;;16.00;9.00;;;19.90;35.00;;;;;;5044022;28;20974;-78
2023/08/15 01:40:28;;;;;;;11.73;8.57;;;19.80;37.40;;;;;;4974010;28;20438;-81
2023/08/15 01:43:27;;;;;;;16.63;9.90;;;19.80;33.90;;;;;;4973890;28;20936;-81
2023/08/15 01:46:20;;;;;;;23.93;9.07;;;19.70;34.00;;;;;;4973760;28;20907;-82
2023/08/15 01:49:26;;;;;;;31.23;9.40;;;19.70;34.20;;;;;;4977005;28;20422;-81
2023/08/15 01:52:09;;;;;;;16.10;8.70;;;19.70;34.30;;;;;;4973417;28;20464;-81
2023/08/15 01:54:45;;;;;;;16.13;8.93;;;19.60;35.20;;;;;;4973868;28;20484;-81
2023/08/15 01:57:27;;;;;;;19.23;8.80;;;19.60;36.90;;;;;;4957287;28;20423;-81
2023/08/15 01:59:52;;;;;;;14.70;9.30;;;19.60;38.90;;;;;;4973666;28;20508;-81
2023/08/15 02:02:27;;;;;;;19.93;9.40;;;19.60;39.00;;;;;;4957079;28;20962;-82
2023/08/15 02:05:14;;;;;;;27.77;9.20;;;19.60;39.60;;;;;;4973216;28;20623;-81
2023/08/15 02:07:40;;;;;;;24.53;10.17;;;19.60;42.50;;;;;;4957122;28;20544;-81
2023/08/15 02:10:26;;;;;;;19.63;9.17;;;19.60;42.70;;;;;;4973474;28;20509;-82
2023/08/15 02:13:38;;;;;;;15.00;9.33;;;19.60;43.30;;;;;;5010885;28;20482;-81
2023/08/15 02:16:09;;;;;;;20.77;9.77;;;19.60;45.80;;;;;;5043169;28;20463;-81
2023/08/15 02:19:26;;;;;;;16.30;8.93;;;19.60;42.00;;;;;;5040516;28;20440;-81
2023/08/15 02:22:14;;;;;;;15.60;9.60;;;19.50;44.70;;;;;;5054022;28;20784;-78
2023/08/15 02:24:45;;;;;;;20.37;8.93;;;;;;;;;;5053805;28;20426;-78
2023/08/15 02:27:50;;;;;;;14.27;9.53;;;19.50;39.00;;;;;;5039909;28;20956;-78
2023/08/15 02:30:45;;;;;;;17.90;9.10;;;19.40;40.70;;;;;;5040367;28;20423;-78
2023/08/15 02:33:56;;;;;;;18.40;9.47;;;19.50;38.20;;;;;;5051013;28;20514;-78
2023/08/15 02:36:27;;;;;;;18.43;9.90;;;19.50;43.20;;;;;;5053708;28;20430;-80
2023/08/15 02:38:57;;;;;;;17.73;9.67;;;19.40;45.40;;;;;;5046367;28;20439;-81
2023/08/15 02:41:47;;;;;;;37.20;10.10;;;19.40;50.10;;;;;;5049260;28;20423;-81
2023/08/15 02:44:44;;;;;;;19.70;10.33;;;19.50;47.20;;;;;;5045693;28;20437;-81
2023/08/15 02:47:45;;;;;;;30.17;9.57;;;19.50;50.50;;;;;;5053474;28;20828;-81
2023/08/15 02:50:56;;;;;;;20.10;10.37;;;19.50;50.40;;;;;;5043224;28;20775;-81
2023/08/15 02:53:51;;;;;;;33.07;11.40;;;19.50;50.40;;;;;;5045623;28;20442;-78
2023/08/15 02:56:56;;;;;;;19.40;11.90;;;19.50;50.40;;;;;;5053178;28;20404;-78
2023/08/15 02:59:44;;;;;;;27.00;11.90;;;19.50;50.50;;;;;;5048817;28;20416;-78
2023/08/15 03:02:56;;;;;;;23.33;13.30;;;19.60;50.50;;;;;;5053516;28;20489;-78
2023/08/15 03:06:17;;;;;;;20.83;12.27;;;19.60;50.60;;;;;;5052710;28;20488;-78
2023/08/15 03:08:57;;;;;;;30.37;11.40;;;19.70;50.60;;;;;;4967744;28;20548;-78
2023/08/15 03:11:39;;;;;;;24.97;10.60;;;19.80;50.70;;;;;;4972703;28;20989;-79
2023/08/15 03:17:57;;;;;;;29.40;11.13;;;19.90;50.80;;;;;;4972841;28;20484;-82
2023/08/15 03:20:57;;;;;;;19.63;10.57;;;19.90;50.80;;;;;;4971749;28;20427;-81
2023/08/15 03:23:27;;;;;;;24.97;11.60;;;20.00;51.00;;;;;;4956040;28;20424;-85
2023/08/15 03:25:58;;;;;;;23.13;10.40;;;20.00;50.90;;;;;;4973324;28;20465;-85
2023/08/15 03:28:56;;;;;;;19.43;10.80;;;20.00;50.90;;;;;;4957288;28;20427;-85
2023/08/15 03:31:44;;;;;;;16.80;9.70;;;20.10;51.00;;;;;;4957146;28;20854;-85
2023/08/15 03:37:45;;;;;;;18.30;10.90;;;;;;;;;;4965378;28;20402;-85
2023/08/15 03:40:27;;;;;;;13.53;9.93;;;20.10;47.70;;;;;;4965143;28;20844;-85
2023/08/15 03:42:57;;;;;;;16.50;10.37;;;20.20;47.80;;;;;;5004539;28;20432;-85
2023/08/15 03:45:39;;;;;;;21.10;11.57;;;20.20;51.20;;;;;;5043558;28;20932;-85
2023/08/15 03:48:07;;;;;;;20.77;11.00;;;20.30;51.20;;;;;;5047588;28;20427;-84
2023/08/15 03:50:34;;;;;;;25.37;12.07;;;20.30;51.10;;;;;;5048825;28;20439;-85
2023/08/15 03:53:00;;;;;;;26.67;10.80;;;20.30;51.30;;;;;;5038844;28;20477;-84
2023/08/15 03:55:27;;;;;;;40.90;11.80;;;20.20;51.30;;;;;;5053312;28;20429;-85
2023/08/15 03:58:03;;;;;;;42.97;12.37;;;20.30;51.20;;;;;;5052260;28;20416;-85
2023/08/15 04:00:46;;;;;;;38.10;13.50;;;20.30;51.20;;;;;;5048464;28;20956;-83
2023/08/15 04:03:12;;;;;;;28.10;13.03;;;20.30;51.40;;;;;;5050650;28;21064;-84
2023/08/15 04:05:46;;;;;;;22.97;11.87;;;20.30;51.40;;;;;;5041021;28;20475;-84
2023/08/15 04:08:13;;;;;;;33.00;13.63;;;20.30;51.30;;;;;;5054305;28;20731;-84
2023/08/15 04:10:41;;;;;;;27.60;12.00;;;20.30;52.30;;;;;;5057243;28;20977;-84
2023/08/15 04:13:08;;;;;;;25.00;12.80;;;20.40;52.70;;;;;;5053428;28;20420;-84
2023/08/15 04:15:35;;;;;;;25.10;12.00;;;20.40;51.20;;;;;;5044665;28;20962;-84
2023/08/15 04:18:02;;;;;;;23.97;12.40;;;20.50;51.40;;;;;;5041284;28;20387;-84
2023/08/15 04:20:28;;;;;;;25.10;12.80;;;20.50;51.40;;;;;;5045147;28;20420;-84
2023/08/15 04:22:53;;;;;;;28.30;12.87;;;20.60;48.10;;;;;;5048080;28;21008;-82
2023/08/15 04:25:19;;;;;;;35.03;12.73;;;20.60;48.10;;;;;;5045879;28;20182;-81
2023/08/15 04:27:45;;;;;;;33.30;13.37;;;20.50;48.10;;;;;;5051720;28;20264;-81
2023/08/15 04:30:11;;;;;;;34.37;14.73;;;20.60;48.20;;;;;;5045217;28;20182;-80
2023/08/15 04:32:36;;;;;;;23.13;14.00;;;20.60;48.30;;;;;;5052433;28;20198;-81
2023/08/15 04:35:02;;;;;;;31.27;15.10;;;20.60;49.30;;;;;;5053481;28;20865;-82
2023/08/15 04:37:29;;;;;;;23.57;13.40;;;20.70;56.30;;;;;;5046416;28;20183;-81
2023/08/15 04:39:54;;;;;;;31.13;11.17;;;20.70;55.30;;;;;;5041042;28;20178;-84
2023/08/15 04:42:20;;;;;;;28.87;14.10;;;20.60;57.30;;;;;;5048592;28;20773;-84
2023/08/15 04:44:51;;;;;;;27.03;14.60;;;20.60;63.50;;;;;;5045147;28;20686;-84
2023/08/15 04:47:27;;;;;;;29.07;14.30;;;20.70;66.90;;;;;;5048147;28;20187;-84
2023/08/15 04:49:57;;;;;;;41.33;14.40;;;20.70;67.60;;;;;;5048422;28;20424;-83
2023/08/15 04:52:27;;;;;;;26.73;15.43;;;20.70;71.00;;;;;;5053342;28;20447;-84
2023/08/15 04:54:57;;;;;;;29.10;15.73;;;20.90;67.80;;;;;;5050500;28;20426;-84
2023/08/15 04:57:27;;;;;;;31.53;15.07;;;20.90;72.60;;;;;;5054630;28;20421;-84
2023/08/15 05:00:27;;;;;;;30.00;15.97;;;21.00;72.60;;;;;;5054010;28;20497;-83
2023/08/15 05:02:57;;;;;;;39.93;15.83;;;21.10;67.10;;;;;;5053439;28;20465;-83
2023/08/15 05:05:23;;;;;;;23.13;13.20;;;21.20;61.70;;;;;;5041211;28;20412;-84
2023/08/15 05:07:49;;;;;;;27.87;12.97;;;21.20;52.50;;;;;;5041390;28;20515;-84
2023/08/15 05:10:14;;;;;;;25.97;13.73;;;21.30;48.80;;;;;;5055420;28;20920;-81
2023/08/15 05:12:45;;;;;;;20.17;12.40;;;21.20;48.70;;;;;;5049235;28;20171;-81
2023/08/15 05:15:15;;;;;;;21.70;10.67;;;21.30;52.30;;;;;;5050465;28;20581;-81
2023/08/15 05:17:48;;;;;;;14.30;8.63;;;21.30;52.40;;;;;;5048505;28;20424;-81
2023/08/15 05:26:57;;;;;;;17.03;8.40;;;21.60;52.20;;;;;;5046615;28;20421;-83
2023/08/15 05:29:44;;;;;;;20.20;9.07;;;21.60;52.20;;;;;;5048356;28;20406;-83
2023/08/15 05:32:50;;;;;;;15.23;7.53;;;21.60;52.30;;;;;;5053353;28;20204;-83
2023/08/15 05:36:08;;;;;;;23.53;7.60;;;21.60;52.30;;;;;;5041368;28;20425;-83
2023/08/15 05:41:57;;;;;;;10.93;7.43;;;;;;;;;;5037683;28;20410;-83
2023/08/15 05:44:50;;;;;;;14.60;6.40;;;21.60;43.70;;;;;;5054048;28;20855;-84
2023/08/15 05:47:50;;;;;;;21.67;7.17;;;21.70;45.00;;;;;;5047473;28;20462;-83
2023/08/15 05:53:56;;;;;;;12.87;7.00;;;21.70;45.90;;;;;;5053559;28;20480;-82
2023/08/15 05:56:22;;;;;;;9.63;6.13;;;21.70;44.10;;;;;;5046134;28;20852;-80
2023/08/15 05:59:14;;;;;;;10.53;6.63;;;21.70;42.20;;;;;;5059084;28;20433;-80
2023/08/15 06:01:41;;;;;;;18.80;7.37;;;21.80;45.50;;;;;;5055966;28;20512;-82
2023/08/15 06:04:21;;;;;;;14.43;7.83;;;21.90;47.80;;;;;;5047220;28;20419;-82
2023/08/15 06:07:09;;;;;;;11.73;8.90;;;21.90;44.20;;;;;;5058873;28;20969;-82
2023/08/15 06:09:35;;;;;;;16.03;8.80;;;21.90;41.60;;;;;;5045191;28;20897;-83
2023/08/15 06:18:45;;;;;;;16.43;8.37;;;22.10;47.90;;;;;;5050718;28;20507;-83
2023/08/15 06:21:50;;;;;;;14.63;9.00;;;22.20;52.70;;;;;;5052404;28;20518;-82
2023/08/15 06:25:08;;;;;;;14.07;8.73;;;22.20;39.90;;;;;;5053419;28;20187;-82
2023/08/15 06:34:21;;;;;;;15.53;10.13;;;22.30;49.30;;;;;;5046782;28;20482;-83
2023/08/15 06:37:32;;;;;;;18.30;9.77;;;22.40;46.00;;;;;;5046315;28;20484;-83
2023/08/15 06:40:50;;;;;;;15.37;9.90;;;22.50;40.70;;;;;;5046318;28;20927;-80
2023/08/15 06:47:20;;;;;;;15.00;9.00;;;22.90;39.70;;;;;;5047304;28;20423;-80
2023/08/15 06:50:20;;;;;;;10.67;8.63;;;23.10;29.80;;;;;;5047151;28;20441;-80
2023/08/15 06:59:35;;;;;;;22.33;9.13;;;23.20;16.20;;;;;;5053165;28;20785;-80
2023/08/15 07:02:15;;;;;;;11.70;8.00;;;23.20;17.90;;;;;;5051880;28;20500;-80
2023/08/15 07:05:20;;;;;;;20.13;8.87;;;23.20;20.90;;;;;;5056088;28;20956;-80
2023/08/15 07:07:46;;;;;;;14.27;7.63;;;23.30;17.60;;;;;;5034604;28;20496;-83
2023/08/15 07:10:50;;;;;;;10.97;7.63;;;23.30;8.60;;;;;;5053513;28;20444;-83
2023/08/15 07:17:20;;;;;;;11.53;7.20;;;23.40;1.00;;;;;;5044914;28;20966;-83
2023/08/15 07:20:20;;;;;;;13.83;8.20;;;23.50;1.00;;;;;;5045394;28;20437;-83
2023/08/15 07:23:03;;;;;;;15.00;8.00;;;23.60;1.00;;;;;;5063546;28;20433;-83
2023/08/15 07:25:51;;;;;;;16.93;8.50;;;23.70;1.00;;;;;;5047367;28;20421;-80
2023/08/15 07:31:45;;;;;;;16.13;7.93;;;23.80;1.00;;;;;;5057320;28;20491;-80
2023/08/15 07:34:21;;;;;;;16.57;7.90;;;23.90;1.00;;;;;;5056536;28;20440;-81
2023/08/15 07:37:20;;;;;;;10.77;8.20;;;23.90;1.00;;;;;;5052120;28;20435;-80
2023/08/15 07:40:18;;;;;;;8.70;7.20;;;24.10;1.00;;;;;;5033692;28;20437;-83
2023/08/15 07:42:53;;;;;;;13.50;8.10;;;24.10;1.00;;;;;;5027882;28;20418;-83
2023/08/15 07:45:22;;;;;;;9.90;7.77;;;24.30;1.00;;;;;;5056407;28;20424;-83
2023/08/15 07:47:58;;;;;;;23.63;8.50;;;24.30;1.00;;;;;;5056187;28;20434;-83
2023/08/15 07:51:03;;;;;;;19.13;8.33;;;24.40;1.00;;;;;;5055625;28;20911;-84
2023/08/15 07:54:20;;;;;;;13.00;8.03;;;24.50;1.00;;;;;;5054581;28;20416;-82
2023/08/15 07:56:46;;;;;;;9.90;8.03;;;24.60;1.00;;;;;;5056397;28;20412;-80
2023/08/15 07:59:21;;;;;;;14.90;7.87;;;24.80;1.00;;;;;;5056490;28;20465;-80
2023/08/15 08:01:51;;;;;;;19.83;8.60;;;24.80;1.00;;;;;;5035897;28;20242;-80
2023/08/15 08:04:27;;;;;;;15.10;7.57;;;24.90;1.00;;;;;;5050021;28;20465;-80
2023/08/15 08:07:11;;;;;;;11.93;7.37;;;24.90;1.00;;;;;;5067096;28;20442;-80
2023/08/15 08:09:36;;;;;;;10.53;6.83;;;25.00;1.00;;;;;;5051551;28;20990;-79
2023/08/15 08:12:09;;;;;;;10.00;6.97;;;25.10;1.00;;;;;;5047230;28;20488;-84
2023/08/15 08:14:51;;;;;;;13.70;7.20;;;25.20;1.00;;;;;;5055435;28;20177;-84
2023/08/15 08:17:50;;;;;;;19.13;7.10;;;25.30;1.00;;;;;;5063869;28;20499;-83
2023/08/15 08:20:50;;;;;;;10.70;7.10;;;25.40;1.00;;;;;;5043228;28;20436;-84
2023/08/15 08:23:44;;;;;;;21.63;7.33;;;25.30;1.00;;;;;;5064026;28;20450;-83
2023/08/15 08:26:50;;;;;;;9.40;6.80;;;25.40;1.00;;;;;;5068515;28;20471;-80
2023/08/15 08:29:21;;;;;;;8.63;6.67;;;25.50;1.00;;;;;;5042736;28;20436;-80
2023/08/15 08:31:51;;;;;;;10.50;6.93;;;25.60;1.00;;;;;;5050388;28;20820;-80
2023/08/15 08:34:21;;;;;;;11.97;7.20;;;25.60;1.00;;;;;;5036823;28;20423;-79
2023/08/15 08:37:21;;;;;;;10.83;6.20;;;25.60;1.00;;;;;;5050473;28;20407;-80
2023/08/15 08:40:21;;;;;;;10.00;6.50;;;25.70;1.00;;;;;;5052701;28;20432;-80
2023/08/15 08:42:51;;;;;;;10.97;6.40;;;25.80;1.00;;;;;;5047284;28;20971;-84
2023/08/15 08:45:25;;;;;;;9.20;6.20;;;25.80;1.00;;;;;;5055122;28;20427;-84
2023/08/15 08:47:51;;;;;;;13.50;6.60;;;25.80;1.00;;;;;;5055959;28;20435;-84
2023/08/15 08:50:21;;;;;;;7.47;5.97;;;25.80;1.00;;;;;;5049674;28;20488;-84
2023/08/15 08:53:20;;;;;;;14.10;6.37;;;26.00;1.00;;;;;;5035205;28;20413;-84
2023/08/15 08:56:21;;;;;;;8.30;5.70;;;25.90;1.00;;;;;;5035009;28;20443;-81
2023/08/15 08:59:23;;;;;;;6.33;5.60;;;26.00;1.00;;;;;;5044138;28;20400;-80
2023/08/15 09:01:52;;;;;;;16.50;6.00;;;26.10;1.00;;;;;;5042459;28;20436;-84
2023/08/15 09:04:20;;;;;;;11.80;5.80;;;26.30;1.00;;;;;;5053866;28;20440;-84
2023/08/15 09:06:46;;;;;;;6.50;5.70;;;26.60;1.00;;;;;;5066990;28;20427;-84
2023/08/15 09:09:50;;;;;;;7.60;5.27;;;26.60;1.00;;;;;;5054413;28;20453;-85
2023/08/15 09:16:20;;;;;;;6.50;5.17;;;26.80;1.00;;;;;;5035432;28;20803;-84
2023/08/15 09:19:20;;;;;;;6.70;4.63;;;26.90;1.00;;;;;;5044225;28;20419;-84
2023/08/15 09:22:24;;;;;;;5.37;4.60;;;27.00;1.00;;;;;;5044040;28;20422;-84
2023/08/15 09:25:23;;;;;;;5.83;4.53;;;27.00;1.00;;;;;;5042502;28;20426;-80
2023/08/15 09:27:48;;;;;;;4.60;4.20;;;27.00;1.00;;;;;;5050104;28;20432;-80
2023/08/15 09:30:22;;;;;;;8.93;4.37;;;27.30;1.00;;;;;;5047601;28;20418;-80
2023/08/15 09:32:51;;;;;;;6.63;4.00;;;27.30;1.00;;;;;;5055117;28;20176;-80
2023/08/15 09:35:21;;;;;;;5.53;3.83;;;27.50;1.00;;;;;;5059466;28;20482;-85
2023/08/15 09:37:52;;;;;;;3.73;3.43;;;27.50;1.00;;;;;;5047390;28;20418;-85
2023/08/15 09:40:34;;;;;;;4.07;3.67;;;27.80;1.00;;;;;;5049294;28;20417;-80
2023/08/15 09:43:00;;;;;;;3.50;3.13;;;28.10;1.00;;;;;;5044353;28;20793;-81
2023/08/15 09:45:39;;;;;;;4.50;3.40;;;28.20;1.00;;;;;;5051926;28;20494;-80
2023/08/15 09:48:26;;;;;;;4.30;3.40;;;28.40;1.00;;;;;;5050169;28;20178;-81
2023/08/15 09:50:57;;;;;;;3.90;3.50;;;28.80;1.00;;;;;;5047270;28;20585;-81
2023/08/15 09:53:52;;;;;;;5.33;4.03;;;28.90;1.00;;;;;;5049472;28;20467;-85
2023/08/15 09:56:46;;;;;;;7.83;3.63;;;29.10;1.00;;;;;;5053996;28;20421;-82
2023/08/15 09:59:50;;;;;;;6.17;3.40;;;29.10;1.00;;;;;;5045000;28;20456;-80
2023/08/15 10:02:55;;;;;;;4.27;3.10;;;29.20;1.00;;;;;;5054453;28;20405;-81
2023/08/15 10:05:21;;;;;;;3.10;2.70;;;29.20;1.00;;;;;;5042199;28;20937;-80
2023/08/15 10:07:48;;;;;;;8.50;3.40;;;29.20;1.00;;;;;;5047280;28;20442;-81
2023/08/15 10:10:21;;;;;;;7.23;3.60;;;29.20;1.00;;;;;;5041716;28;20417;-80
2023/08/15 10:12:49;;;;;;;3.90;3.50;;;29.20;1.00;;;;;;5047033;28;20524;-81
2023/08/15 10:15:22;;;;;;;4.30;3.60;;;29.30;1.00;;;;;;5049180;28;20487;-81
2023/08/15 10:17:51;;;;;;;6.47;3.23;;;29.10;1.00;;;;;;5055166;28;20540;-81
2023/08/15 10:20:21;;;;;;;6.70;3.03;;;29.30;1.00;;;;;;5044802;28;20422;-81
2023/08/15 10:22:54;;;;;;;3.40;2.97;;;29.50;1.00;;;;;;5051543;28;20427;-81
2023/08/15 10:25:40;;;;;;;3.10;2.87;;;29.50;1.00;;;;;;5041816;28;20426;-81
2023/08/15 10:28:12;;;;;;;2.73;2.53;;;29.40;1.00;;;;;;5042040;28;20406;-81
2023/08/15 10:31:20;;;;;;;3.67;3.30;;;29.40;1.00;;;;;;5048493;28;20429;-81
2023/08/15 10:34:21;;;;;;;5.00;2.97;;;29.70;1.00;;;;;;5053965;28;20451;-83
2023/08/15 10:37:28;;;;;;;11.50;2.90;;;29.80;1.00;;;;;;5053868;28;20502;-82
2023/08/15 10:40:21;;;;;;;2.60;2.40;;;30.10;1.00;;;;;;5044718;28;20505;-82
2023/08/15 10:43:32;;;;;;;5.20;2.73;;;30.20;1.00;;;;;;5043239;28;20495;-81
2023/08/15 10:46:25;;;;;;;5.70;2.87;;;30.30;1.00;;;;;;5042361;28;20414;-82
2023/08/15 10:48:55;;;;;;;3.80;2.80;;;30.30;1.00;;;;;;5053748;28;20991;-81
2023/08/15 10:51:22;;;;;;;2.73;2.40;;;30.30;1.00;;;;;;5052960;28;20454;-81
2023/08/15 10:53:59;;;;;;;2.87;2.60;;;30.10;1.00;;;;;;5051116;28;20460;-77
2023/08/15 10:57:08;;;;;;;2.93;2.67;;;29.80;1.00;;;;;;5053850;28;20796;-81
2023/08/15 11:03:50;;;;;;;9.53;3.50;;;29.00;1.00;;;;;;5048280;28;20416;-81
2023/08/15 11:06:21;;;;;;;3.10;2.90;;;28.90;1.00;;;;;;5049494;28;20424;-81
2023/08/15 11:08:56;;;;;;;4.70;2.80;;;28.60;1.00;;;;;;5040145;28;20981;-81
2023/08/15 11:11:31;;;;;;;9.97;2.50;;;28.10;1.00;;;;;;5053381;28;20467;-81
2023/08/15 11:13:59;;;;;;;8.07;2.80;;;28.10;1.00;;;;;;5041248;28;20415;-81
2023/08/15 11:16:34;;;;;;;4.80;2.70;;;27.90;1.00;;;;;;5052749;28;20436;-81
2023/08/15 11:19:21;;;;;;;3.03;2.70;;;27.70;1.00;;;;;;5056887;28;20930;-81
2023/08/15 11:21:51;;;;;;;4.37;2.90;;;27.70;1.00;;;;;;5047889;28;20484;-81
2023/08/15 11:24:21;;;;;;;6.23;2.60;;;27.40;1.00;;;;;;5060047;28;20409;-81
2023/08/15 11:26:53;;;;;;;7.93;2.87;;;27.20;1.00;;;;;;5059917;28;20884;-81
2023/08/15 11:29:39;;;;;;;2.70;2.20;;;26.90;1.00;;;;;;5046867;28;20403;-77
2023/08/15 11:32:22;;;;;;;10.20;2.50;;;26.90;1.00;;;;;;5059950;28;20446;-77
2023/08/15 11:34:51;;;;;;;3.97;2.40;;;26.70;1.00;;;;;;5053106;28;20423;-77
2023/08/15 11:37:17;;;;;;;4.33;2.50;;;26.70;1.00;;;;;;5051747;28;20774;-77
2023/08/15 11:39:52;;;;;;;4.90;3.13;;;26.60;1.00;;;;;;5059570;28;20430;-77
2023/08/15 11:42:22;;;;;;;4.50;3.53;;;26.50;1.00;;;;;;5059613;28;20439;-78
2023/08/15 11:45:22;;;;;;;5.80;2.70;;;26.30;1.00;;;;;;5048154;28;20906;-77
2023/08/15 11:48:09;;;;;;;3.63;3.20;;;26.00;1.00;;;;;;5059626;28;20423;-77
2023/08/15 11:51:20;;;;;;;8.90;3.13;;;26.00;1.00;;;;;;5058395;28;20795;-77
2023/08/15 11:53:52;;;;;;;8.73;3.97;;;26.20;1.00;;;;;;5049293;28;20792;-77
2023/08/15 11:56:17;;;;;;;9.53;3.07;;;26.10;1.00;;;;;;5059918;28;20409;-77
2023/08/15 11:58:45;;;;;;;4.20;3.27;;;26.00;1.00;;;;;;5058003;28;20425;-76
2023/08/15 12:01:25;;;;;;;10.03;3.90;;;25.90;1.00;;;;;;5048338;28;20182;-77
2023/08/15 12:03:52;;;;;;;9.30;3.80;;;25.90;1.00;;;;;;5059587;28;20755;-77
2023/08/15 12:06:21;;;;;;;6.27;3.60;;;26.00;1.00;;;;;;5057331;28;20385;-77
2023/08/15 12:08:47;;;;;;;7.90;3.23;;;26.20;1.00;;;;;;5054138;28;20432;-77
2023/08/15 12:11:20;;;;;;;4.23;3.43;;;26.20;1.00;;;;;;5051743;28;20495;-77
2023/08/15 12:13:46;;;;;;;9.97;3.80;;;25.80;1.00;;;;;;5059079;28;20179;-77
2023/08/15 12:19:57;;;;;;;5.43;3.60;;;26.00;1.00;;;;;;5053597;28;20710;-77
2023/08/15 12:22:23;;;;;;;9.83;3.40;;;26.20;1.00;;;;;;5049928;28;20417;-77
2023/08/15 12:24:51;;;;;;;5.30;3.80;;;26.10;1.00;;;;;;5044789;28;20433;-77
2023/08/15 12:27:21;;;;;;;6.80;3.70;;;25.80;1.00;;;;;;5059277;28;20174;-77
2023/08/15 12:30:04;;;;;;;5.30;3.30;;;25.90;1.00;;;;;;5045590;28;20421;-77
2023/08/15 12:35:52;;;;;;;3.67;2.97;;;26.30;1.00;;;;;;5056169;28;20398;-80
2023/08/15 12:41:39;;;;;;;8.50;3.30;;;27.00;1.00;;;;;;5052052;28;20185;-80
2023/08/15 12:44:15;;;;;;;7.10;2.90;;;27.20;1.00;;;;;;5052000;28;20818;-80
2023/08/15 12:50:09;;;;;;;8.60;3.03;;;27.10;1.00;;;;;;5050559;28;20461;-81
2023/08/15 12:53:14;;;;;;;4.00;3.50;;;26.90;1.00;;;;;;5049492;28;20488;-81
2023/08/15 12:59:03;;;;;;;9.80;4.00;;;26.70;1.00;;;;;;5055232;28;20445;-80
2023/08/15 13:04:51;;;;;;;9.73;3.70;;;26.50;1.00;;;;;;5046022;28;20489;-83
2023/08/15 13:07:16;;;;;;;3.97;3.23;;;26.20;1.00;;;;;;5052159;28;20462;-79
2023/08/15 13:10:03;;;;;;;8.30;3.97;;;26.30;1.00;;;;;;5045200;28;20199;-79
2023/08/15 13:12:51;;;;;;;10.87;4.57;;;26.20;1.00;;;;;;5048126;28;20207;-79
2023/08/15 13:18:38;;;;;;;13.63;4.63;;;26.10;1.00;;;;;;5041462;28;20476;-79
2023/08/15 13:28:09;;;;;;;6.50;4.27;;;25.50;1.00;;;;;;5051287;28;20398;-78
2023/08/15 13:30:34;;;;;;;5.90;3.60;;;25.10;1.00;;;;;;5043423;28;20831;-77
2023/08/15 13:36:22;;;;;;;8.70;4.27;;;24.80;1.00;;;;;;5053027;28;20694;-88
2023/08/15 13:39:14;;;;;;;9.80;4.20;;;24.50;1.00;;;;;;5049666;28;20416;-84
2023/08/15 13:55:15;;;;;;;5.63;4.30;;;24.50;1.00;;;;;;5052689;28;20408;-79
2023/08/15 14:01:03;;;;;;;7.37;4.30;;;24.60;1.00;;;;;;5049091;28;20423;-83
2023/08/15 14:06:51;;;;;;;6.60;4.37;;;25.10;1.00;;;;;;5047059;28;20947;-79
2023/08/15 14:09:45;;;;;;;7.37;3.83;;;25.70;1.00;;;;;;5052661;28;20455;-79
2023/08/15 14:12:15;;;;;;;7.17;3.70;;;26.10;1.00;;;;;;5052816;28;20469;-79
2023/08/15 14:18:04;;;;;;;6.33;3.90;;;26.40;1.00;;;;;;5046792;28;20413;-79
2023/08/15 14:21:10;;;;;;;5.20;3.80;;;26.40;1.00;;;;;;5052241;28;20437;-79
2023/08/15 14:33:41;;;;;;;9.63;4.03;;;26.10;1.00;;;;;;5050352;28;20438;-83
2023/08/15 14:39:28;;;;;;;14.60;4.03;;;26.30;1.00;;;;;;5050249;28;20187;-85
2023/08/15 14:52:03;;;;;;;8.83;3.93;;;26.80;1.00;;;;;;5045265;28;20501;-84
2023/08/15 14:58:03;;;;;;;12.90;5.10;;;27.80;1.00;;;;;;5041045;28;20919;-84
2023/08/15 15:01:04;;;;;;;19.03;5.70;;;27.10;1.00;;;;;;5050221;28;20430;-85
2023/08/15 15:03:39;;;;;;;9.07;5.10;;;27.40;1.00;;;;;;5054117;28;20475;-84
2023/08/15 15:06:23;;;;;;;8.17;5.07;;;27.50;1.00;;;;;;5044761;28;20437;-81
2023/08/15 15:22:18;;;;;;;5.83;4.23;;;29.60;1.00;;;;;;5041414;28;20927;-86
2023/08/15 15:25:27;;;;;;;11.30;5.17;;;29.30;1.00;;;;;;5044118;28;20936;-85
2023/08/15 15:28:15;;;;;;;17.70;5.50;;;28.80;1.00;;;;;;5047816;28;20454;-85
2023/08/15 15:31:03;;;;;;;8.07;4.40;;;28.50;1.00;;;;;;5044523;28;20494;-81
2023/08/15 15:33:51;;;;;;;6.47;4.57;;;28.20;1.00;;;;;;5050617;28;20492;-81
2023/08/15 15:36:46;;;;;;;5.30;4.77;;;27.80;1.00;;;;;;5046165;28;20425;-81
2023/08/15 15:39:50;;;;;;;10.83;4.53;;;27.60;1.00;;;;;;5047132;28;20427;-81
2023/08/15 15:52:22;;;;;;;4.70;4.20;;;27.10;1.00;;;;;;5037144;28;20483;-80
2023/08/15 15:55:21;;;;;;;4.73;4.13;;;27.00;1.00;;;;;;5052865;28;20413;-80
2023/08/15 15:57:51;;;;;;;9.23;4.90;;;26.80;1.00;;;;;;5050813;28;20638;-81
2023/08/15 16:00:33;;;;;;;7.27;4.50;;;26.40;1.00;;;;;;5038894;28;20482;-84
2023/08/15 16:07:10;;;;;;;5.50;4.70;;;26.20;1.00;;;;;;5037093;28;20910;-87
2023/08/15 16:09:35;;;;;;;16.50;6.00;;;26.10;1.00;;;;;;5048154;28;20975;-87
2023/08/15 16:12:21;;;;;;;9.63;5.07;;;25.90;1.00;;;;;;5054506;28;20451;-87
2023/08/15 16:14:59;;;;;;;6.50;4.53;;;25.90;1.00;;;;;;5043655;28;20308;-87
2023/08/15 16:21:09;;;;;;;8.87;5.07;;;25.40;1.00;;;;;;5050410;28;20404;-83
2023/08/15 16:23:39;;;;;;;14.30;5.10;;;25.40;1.00;;;;;;5055503;28;20406;-83
2023/08/15 16:32:57;;;;;;;6.13;3.80;;;25.70;1.00;;;;;;5050833;28;20494;-82
2023/08/15 16:38:44;;;;;;;6.87;3.80;;;25.90;1.00;;;;;;5055324;28;20977;-83
2023/08/15 16:41:15;;;;;;;8.63;4.47;;;26.00;1.00;;;;;;5040343;28;20519;-84
2023/08/15 16:43:45;;;;;;;8.10;4.40;;;26.00;1.00;;;;;;5046851;28;20185;-84
2023/08/15 16:52:55;;;;;;;7.13;3.93;;;25.90;1.00;;;;;;5053670;28;20504;-86
2023/08/15 16:58:52;;;;;;;12.30;4.80;;;25.80;1.00;;;;;;5039677;28;20471;-84
2023/08/15 17:02:00;;;;;;;6.67;4.27;;;25.80;1.00;;;;;;5049486;28;20464;-84
2023/08/15 17:04:57;;;;;;;8.13;4.50;;;25.80;1.00;;;;;;5049017;28;20433;-85
2023/08/15 17:07:22;;;;;;;6.40;3.97;;;25.70;1.00;;;;;;5050671;28;20428;-86
2023/08/15 17:10:09;;;;;;;10.10;4.20;;;25.70;1.00;;;;;;5053854;28;20957;-84
2023/08/15 17:27:21;;;;;;;11.10;4.00;;;26.40;1.00;;;;;;5051689;28;20791;-79
2023/08/15 17:30:04;;;;;;;6.77;3.80;;;26.50;1.00;;;;;;5039673;28;20523;-79
2023/08/15 17:32:51;;;;;;;6.83;3.93;;;26.50;1.00;;;;;;5048395;28;20515;-85
2023/08/15 17:35:33;;;;;;;6.20;3.63;;;26.50;1.00;;;;;;5051457;28;20428;-86
2023/08/15 17:41:20;;;;;;;6.70;3.57;;;26.30;1.00;;;;;;5054663;28;20483;-87
2023/08/15 17:44:21;;;;;;;5.83;3.70;;;26.10;1.00;;;;;;5054230;28;20887;-87
2023/08/15 17:47:27;;;;;;;4.37;3.80;;;26.10;1.00;;;;;;5049742;28;20190;-87
2023/08/15 17:53:33;;;;;;;4.50;3.63;;;26.10;1.00;;;;;;5042898;28;20456;-85
2023/08/15 17:59:45;;;;;;;8.60;4.40;;;25.70;1.00;;;;;;5043756;28;20491;-85
2023/08/15 18:05:33;;;;;;;6.00;3.93;;;25.50;1.00;;;;;;5050491;28;20423;-78
2023/08/15 18:07:59;;;;;;;9.27;4.60;;;25.40;1.00;;;;;;5045549;28;20453;-77
2023/08/15 18:10:25;;;;;;;7.87;4.50;;;25.30;1.00;;;;;;5049418;28;20497;-77
2023/08/15 18:13:03;;;;;;;7.53;4.57;;;25.30;1.00;;;;;;5054202;28;20304;-77
2023/08/15 18:15:45;;;;;;;11.83;4.60;;;25.10;1.00;;;;;;5039175;28;20451;-77
2023/08/15 18:18:28;;;;;;;6.57;4.50;;;25.10;1.00;;;;;;5045489;28;21113;-78